Time;durP1;ratioP1;P1;durP2;ratioP2;P2;SDS_P1;SDS_P2;PMS_P1;PMS_P2;Temp;Humidity;BMP_temperature;BMP_pressure;BME280_temperature;BME280_humidity;BME280_pressure;Samples;Min_cycle;Max_cycle;Signal;HPM_P1;HPM_P2
2020/12/24 00:00:39;;;;;;;10.77;1.60;;;11.40;91.80;;;11.28;78.55;99583.78;4973549;28;20129;-86
2020/12/24 00:03:06;;;;;;;12.73;1.60;;;11.30;91.80;;;11.25;79.53;99591.53;4972484;28;20074;-86
2020/12/24 00:05:33;;;;;;;13.00;1.83;;;11.30;92.20;;;11.22;78.16;99589.28;4972774;28;20073;-86
2020/12/24 00:08:00;;;;;;;10.90;2.00;;;11.30;91.60;;;11.19;78.48;99595.94;4972544;28;20114;-86
2020/12/24 00:10:27;;;;;;;6.78;1.70;;;11.20;91.40;;;11.20;78.34;99591.38;4972541;28;20582;-86
2020/12/24 00:12:53;;;;;;;7.95;1.90;;;11.20;91.40;;;11.15;78.66;99581.91;4981039;28;20138;-86
2020/12/24 00:15:21;;;;;;;12.98;2.10;;;11.20;91.30;;;11.09;77.60;99580.03;4991858;28;20134;-86
2020/12/24 00:17:48;;;;;;;10.32;1.83;;;11.20;90.90;;;11.12;78.05;99584.25;4991761;28;20106;-86
2020/12/24 00:20:16;;;;;;;13.90;1.67;;;11.10;90.80;;;11.12;78.53;99578.81;4991661;28;20466;-86
2020/12/24 00:22:42;;;;;;;11.25;2.38;;;11.10;91.20;;;11.12;78.25;99585.09;4991765;28;20045;-86
2020/12/24 00:25:09;;;;;;;8.75;1.58;;;11.00;91.20;;;11.10;77.65;99576.28;4992363;28;20065;-86
2020/12/24 00:27:36;;;;;;;11.18;1.98;;;11.00;91.00;;;11.04;77.71;99577.13;4991476;28;20483;-85
2020/12/24 00:30:04;;;;;;;10.00;1.90;;;11.00;90.60;;;11.04;77.86;99568.97;4992157;28;20042;-86
2020/12/24 00:32:32;;;;;;;9.07;1.95;;;11.00;90.50;;;11.02;76.16;99578.38;4986388;28;20090;-86
2020/12/24 00:34:58;;;;;;;7.65;1.42;;;11.00;90.50;;;10.95;77.50;99562.91;4972768;28;20380;-86
2020/12/24 00:37:25;;;;;;;10.07;1.73;;;10.90;90.50;;;10.94;76.92;99572.09;4972654;28;20126;-86
2020/12/24 00:39:52;;;;;;;9.20;1.75;;;10.90;90.20;;;10.94;77.14;99572.09;4972815;28;20078;-86
2020/12/24 00:42:19;;;;;;;7.97;1.75;;;10.90;90.20;;;10.93;77.03;99564.16;4971959;28;20038;-87
2020/12/24 00:44:46;;;;;;;8.48;1.55;;;10.90;90.40;;;10.98;76.98;99568.97;4958493;28;20062;-86
2020/12/24 00:47:12;;;;;;;10.27;2.13;;;10.80;90.10;;;10.94;76.40;99566.66;4975537;28;20085;-86
2020/12/24 00:49:40;;;;;;;12.95;1.77;;;10.80;89.90;;;10.95;77.07;99567.50;4975497;28;20042;-86
2020/12/24 00:52:07;;;;;;;10.82;1.95;;;10.80;89.90;;;10.91;76.59;99569.81;4975929;28;20550;-86
2020/12/24 00:54:34;;;;;;;9.15;1.90;;;10.80;90.20;;;10.89;76.42;99566.47;4958021;28;20057;-84
2020/12/24 00:57:02;;;;;;;12.85;1.70;;;10.70;90.20;;;10.88;77.11;99559.34;4958104;28;20046;-84
2020/12/24 00:59:32;;;;;;;9.15;1.80;;;10.70;90.60;;;10.87;76.81;99563.13;4958751;28;20046;-83
2020/12/24 01:01:58;;;;;;;13.25;2.22;;;10.70;90.60;;;10.87;76.63;99556.81;4976596;28;20122;-83
2020/12/24 01:04:25;;;;;;;7.18;1.80;;;10.70;90.30;;;10.84;76.39;99555.38;4976952;28;20510;-83
2020/12/24 01:06:53;;;;;;;10.75;2.28;;;10.70;90.20;;;10.82;76.30;99546.56;4975721;28;20138;-84
2020/12/24 01:09:20;;;;;;;11.63;1.98;;;10.70;89.50;;;10.80;76.67;99548.66;4976662;28;20042;-84
2020/12/24 01:11:46;;;;;;;11.32;1.88;;;10.70;90.30;;;10.83;76.76;99558.28;4976030;28;20054;-83
2020/12/24 01:14:13;;;;;;;11.38;1.55;;;10.70;90.30;;;10.78;76.21;99545.31;4977155;28;20062;-84
2020/12/24 01:16:40;;;;;;;9.55;1.77;;;10.70;90.00;;;10.75;76.19;99545.72;4976141;28;20377;-83
2020/12/24 01:19:06;;;;;;;12.90;2.15;;;10.60;90.00;;;10.71;76.20;99537.16;4976726;28;20657;-83
2020/12/24 01:21:33;;;;;;;12.30;2.00;;;10.60;89.80;;;10.70;76.12;99537.34;4976384;28;20087;-83
2020/12/24 01:24:01;;;;;;;10.77;2.03;;;10.70;89.60;;;10.72;76.04;99541.56;4977145;28;20462;-83
2020/12/24 01:26:28;;;;;;;16.70;2.70;;;10.70;90.00;;;10.73;75.93;99539.66;4976594;28;20066;-83
2020/12/24 01:28:54;;;;;;;10.50;2.15;;;10.60;89.40;;;10.74;76.52;99541.34;4977446;28;20508;-83
2020/12/24 01:31:21;;;;;;;10.63;1.60;;;10.60;89.90;;;10.72;75.91;99536.13;4976665;28;20586;-83
2020/12/24 01:33:48;;;;;;;15.38;2.08;;;10.50;89.80;;;10.70;76.18;99545.50;4976577;28;20078;-83
2020/12/24 01:36:22;;;;;;;9.35;2.47;;;10.50;89.90;;;10.70;76.19;99537.34;4976347;28;20066;-83
2020/12/24 01:38:48;;;;;;;12.77;1.90;;;10.50;89.60;;;10.68;75.82;99534.00;4976394;28;20039;-83
2020/12/24 01:41:16;;;;;;;13.38;2.30;;;10.50;89.60;;;10.55;74.20;99532.13;4976085;28;20043;-83
2020/12/24 01:43:43;;;;;;;11.75;1.67;;;10.50;88.30;;;10.50;74.88;99530.03;4976270;28;20112;-83
2020/12/24 01:46:10;;;;;;;14.15;2.17;;;10.60;88.20;;;10.48;75.93;99534.84;4976603;28;20686;-83
2020/12/24 01:48:36;;;;;;;14.77;2.30;;;10.60;89.00;;;10.53;75.92;99535.06;4976408;28;20085;-83
2020/12/24 01:51:03;;;;;;;17.48;2.75;;;10.50;89.10;;;10.54;75.78;99546.78;4976400;28;20129;-83
2020/12/24 01:53:30;;;;;;;10.95;1.55;;;10.50;88.90;;;10.57;75.77;99540.94;4975998;28;20513;-83
2020/12/24 01:55:57;;;;;;;17.83;2.28;;;10.50;89.40;;;10.60;75.93;99537.78;4975702;28;20047;-83
2020/12/24 01:58:25;;;;;;;11.15;2.00;;;10.50;89.40;;;10.53;75.33;99547.84;4975855;28;20047;-83
2020/12/24 02:00:52;;;;;;;9.05;2.28;;;10.50;88.40;;;10.56;75.46;99541.97;4975882;28;20074;-84
2020/12/24 02:03:19;;;;;;;11.02;2.10;;;10.60;89.20;;;10.57;76.01;99538.22;4975515;28;20089;-83
2020/12/24 02:05:46;;;;;;;17.50;2.17;;;10.60;89.10;;;10.50;75.80;99543.63;4975982;28;20045;-83
2020/12/24 02:08:16;;;;;;;11.50;1.92;;;10.50;88.80;;;10.53;75.74;99535.06;4975467;28;20688;-83
2020/12/24 02:10:43;;;;;;;7.72;1.42;;;10.50;88.90;;;10.59;76.11;99527.94;4975637;28;20047;-83
2020/12/24 02:13:10;;;;;;;13.00;1.92;;;10.50;89.10;;;10.54;75.52;99539.44;4975337;28;20050;-83
2020/12/24 02:15:38;;;;;;;11.57;2.10;;;10.50;89.00;;;10.54;75.77;99533.16;4975679;28;20109;-83
2020/12/24 02:18:04;;;;;;;13.32;2.10;;;10.40;89.20;;;10.47;74.68;99529.59;4975579;28;20058;-83
2020/12/24 02:20:31;;;;;;;16.50;2.78;;;10.50;88.50;;;10.49;75.66;99531.09;4975829;28;20078;-83
2020/12/24 02:22:59;;;;;;;10.70;2.08;;;10.50;88.50;;;10.52;75.50;99530.66;4975234;28;20078;-83
2020/12/24 02:25:26;;;;;;;12.90;2.20;;;10.50;88.50;;;10.55;75.10;99524.81;4975764;28;20507;-83
2020/12/24 02:27:53;;;;;;;11.07;2.10;;;10.50;88.90;;;10.43;74.58;99528.34;4975370;28;20618;-83
2020/12/24 02:30:20;;;;;;;16.55;2.53;;;10.40;88.00;;;10.47;74.90;99524.16;4975179;28;20053;-83
2020/12/24 02:32:46;;;;;;;11.57;2.00;;;10.50;88.40;;;10.51;75.53;99531.72;4975266;28;20557;-83
2020/12/24 02:35:13;;;;;;;13.15;2.30;;;10.50;88.60;;;10.51;75.39;99534.44;4975575;28;20055;-83
2020/12/24 02:37:40;;;;;;;14.25;2.50;;;10.50;88.90;;;10.52;75.24;99525.22;4975468;28;20112;-83
2020/12/24 02:40:07;;;;;;;13.05;2.17;;;10.50;89.10;;;10.52;75.09;99519.78;4974546;28;20074;-83
2020/12/24 02:42:34;;;;;;;12.00;2.05;;;10.50;87.90;;;10.53;74.26;99526.91;4975443;28;20046;-83
2020/12/24 02:45:01;;;;;;;11.95;1.90;;;10.50;88.00;;;10.49;74.96;99524.78;4975282;28;20047;-83
2020/12/24 02:47:27;;;;;;;11.25;2.33;;;10.50;87.70;;;10.49;74.61;99517.47;4975424;28;20130;-83
2020/12/24 02:49:54;;;;;;;10.68;2.05;;;10.50;88.20;;;10.48;74.09;99510.34;4974899;28;20077;-84
2020/12/24 02:52:21;;;;;;;12.00;2.42;;;10.50;87.10;;;10.48;74.59;99518.53;4974928;28;20137;-84
2020/12/24 02:54:47;;;;;;;8.88;2.08;;;10.50;87.50;;;10.50;74.76;99527.31;4975241;28;20074;-83
2020/12/24 02:57:15;;;;;;;15.48;2.38;;;10.50;87.70;;;10.51;74.60;99523.56;4975034;28;20630;-83
2020/12/24 02:59:42;;;;;;;19.95;2.60;;;10.50;87.70;;;10.48;75.03;99518.53;4975389;28;20465;-83
2020/12/24 03:02:09;;;;;;;13.13;2.08;;;10.50;88.00;;;10.49;74.85;99525.66;4975139;28;20074;-83
2020/12/24 03:04:35;;;;;;;14.18;2.15;;;10.50;87.80;;;10.46;73.82;99520.63;4974500;28;20103;-83
2020/12/24 03:07:02;;;;;;;10.65;2.15;;;10.60;87.10;;;10.41;73.57;99528.56;4974114;28;20621;-83
2020/12/24 03:09:29;;;;;;;11.07;1.90;;;10.60;85.90;;;10.47;73.64;99532.31;4974502;28;20139;-83
2020/12/24 03:11:56;;;;;;;10.85;2.20;;;10.60;86.70;;;10.49;74.44;99535.66;4974734;28;20082;-83
2020/12/24 03:14:23;;;;;;;15.38;2.20;;;10.50;87.40;;;10.52;74.64;99529.81;4975312;28;20070;-83
2020/12/24 03:16:50;;;;;;;10.85;1.85;;;10.60;87.40;;;10.51;74.49;99529.00;4964363;28;20103;-83
2020/12/24 03:19:17;;;;;;;10.05;1.85;;;10.50;87.50;;;10.42;74.21;99530.25;4956220;29;20126;-83
2020/12/24 03:21:43;;;;;;;8.93;1.98;;;10.60;87.20;;;10.46;74.99;99520.63;4955260;29;20074;-83
2020/12/24 03:24:10;;;;;;;15.05;2.15;;;10.60;87.70;;;10.47;75.19;99525.03;4955534;29;20043;-83
2020/12/24 03:26:37;;;;;;;10.55;2.00;;;10.60;88.10;;;10.48;75.82;99515.78;4955529;29;20141;-83
2020/12/24 03:29:04;;;;;;;12.63;1.80;;;10.50;88.40;;;10.51;75.58;99523.56;4955464;29;20050;-83
2020/12/24 03:31:33;;;;;;;11.07;2.38;;;10.50;88.40;;;10.47;76.11;99521.44;4955279;29;20117;-83
2020/12/24 03:34:00;;;;;;;12.77;1.83;;;10.50;89.30;;;10.45;76.00;99513.50;4955218;29;20139;-83
2020/12/24 03:36:27;;;;;;;11.38;3.03;;;10.50;89.00;;;10.43;75.74;99514.75;4955796;29;20071;-84
2020/12/24 03:38:53;;;;;;;10.57;1.98;;;10.50;89.10;;;10.49;76.34;99508.47;4955543;29;20071;-83
2020/12/24 03:41:20;;;;;;;14.68;2.30;;;10.50;89.30;;;10.49;76.29;99512.03;4954839;29;20406;-83
2020/12/24 03:43:47;;;;;;;13.27;2.03;;;10.50;89.50;;;10.46;75.25;99515.16;4955625;29;20067;-83
2020/12/24 03:46:13;;;;;;;11.73;1.65;;;10.40;89.10;;;10.23;75.97;99517.44;4955473;29;20082;-83
2020/12/24 03:48:42;;;;;;;14.57;2.25;;;10.50;88.70;;;10.27;75.47;99513.25;4955165;29;20058;-83
2020/12/24 03:51:08;;;;;;;11.23;2.08;;;10.50;88.40;;;10.23;76.54;99517.44;4955610;29;20534;-83
2020/12/24 03:53:35;;;;;;;11.18;1.80;;;10.50;88.90;;;10.34;76.91;99514.13;4958296;28;20074;-83
2020/12/24 03:56:03;;;;;;;7.93;1.70;;;10.40;89.40;;;10.34;77.16;99516.84;4973981;28;20122;-83
2020/12/24 03:58:30;;;;;;;8.20;1.60;;;10.40;90.00;;;10.39;77.52;99511.59;4974193;28;20117;-83
2020/12/24 04:00:57;;;;;;;11.18;2.15;;;10.40;90.20;;;10.32;77.08;99506.19;4973968;28;20117;-83
2020/12/24 04:03:23;;;;;;;9.57;1.80;;;10.40;90.20;;;10.36;76.88;99509.31;4974104;28;20057;-83
2020/12/24 04:05:51;;;;;;;9.05;1.60;;;10.40;90.50;;;10.27;76.79;99510.53;4974422;28;20070;-83
2020/12/24 04:08:17;;;;;;;12.32;2.15;;;10.40;89.70;;;10.27;77.42;99510.53;4956496;28;20084;-83
2020/12/24 04:10:44;;;;;;;10.43;1.70;;;10.30;90.10;;;10.21;77.06;99508.66;4957084;28;20511;-83
2020/12/24 04:13:11;;;;;;;11.63;2.13;;;10.30;90.00;;;10.27;77.31;99507.81;4973674;28;20047;-83
2020/12/24 04:15:38;;;;;;;10.93;1.80;;;10.40;90.10;;;10.31;77.30;99511.81;4973446;28;20046;-83
2020/12/24 04:18:04;;;;;;;15.90;1.98;;;10.40;90.20;;;10.35;76.99;99510.34;4975027;28;20129;-83
2020/12/24 04:20:31;;;;;;;10.65;1.75;;;10.30;89.70;;;10.33;76.71;99509.72;4977875;28;20051;-83
2020/12/24 04:22:59;;;;;;;10.27;1.90;;;10.30;89.80;;;10.30;76.75;99520.97;4977482;28;20050;-83
2020/12/24 04:25:25;;;;;;;7.88;1.60;;;10.30;90.00;;;10.29;76.55;99513.88;4977660;28;20085;-83
2020/12/24 04:27:52;;;;;;;11.85;1.70;;;10.30;89.90;;;10.28;76.79;99514.91;4977634;28;20050;-83
2020/12/24 04:30:19;;;;;;;9.85;1.92;;;10.30;89.60;;;10.27;76.62;99514.06;4977419;28;20133;-83
2020/12/24 04:32:45;;;;;;;11.63;1.92;;;10.30;89.60;;;10.25;76.39;99507.19;4977306;28;20137;-83
2020/12/24 04:35:12;;;;;;;14.30;2.17;;;10.30;88.90;;;10.25;76.08;99513.44;4977286;28;20126;-83
2020/12/24 04:37:39;;;;;;;12.90;1.65;;;10.30;89.20;;;10.20;76.17;99526.00;4977215;28;20077;-83
2020/12/24 04:40:07;;;;;;;9.38;1.70;;;10.30;88.80;;;10.22;76.33;99518.47;4977347;28;20507;-83
2020/12/24 04:42:34;;;;;;;9.27;1.73;;;10.30;89.10;;;10.25;76.34;99523.50;4977152;28;20047;-83
2020/12/24 04:45:01;;;;;;;13.27;2.03;;;10.30;89.20;;;10.25;76.52;99518.88;4977593;28;20053;-83
2020/12/24 04:47:29;;;;;;;12.93;2.13;;;10.30;89.30;;;10.29;76.32;99514.69;4977653;28;20042;-83
2020/12/24 04:49:59;;;;;;;14.02;2.25;;;10.30;89.30;;;10.31;76.13;99514.53;4977549;28;20468;-83
2020/12/24 04:52:26;;;;;;;6.57;1.60;;;10.30;89.20;;;10.32;76.28;99513.50;4977108;28;20043;-83
2020/12/24 04:54:55;;;;;;;11.68;2.03;;;10.30;89.30;;;10.32;76.26;99510.78;4977274;28;20045;-83
2020/12/24 04:57:23;;;;;;;10.65;1.40;;;10.30;89.50;;;10.33;76.45;99507.00;4976737;28;20070;-83
2020/12/24 04:59:53;;;;;;;7.32;2.28;;;10.30;89.70;;;10.32;76.18;99503.47;4977645;28;20103;-83
2020/12/24 05:02:20;;;;;;;11.00;2.05;;;10.30;89.60;;;10.35;76.00;99494.03;4977181;28;20066;-83
2020/12/24 05:04:47;;;;;;;13.27;2.13;;;10.30;89.80;;;10.32;76.03;99506.19;4976969;28;20519;-83
2020/12/24 05:07:14;;;;;;;13.48;3.03;;;10.20;89.40;;;10.29;76.34;99503.00;4977404;28;20074;-83
2020/12/24 05:09:42;;;;;;;10.40;1.90;;;10.20;89.60;;;10.27;76.16;99508.63;4976629;28;20118;-83
2020/12/24 05:12:09;;;;;;;9.95;1.70;;;10.20;89.30;;;10.24;76.66;99510.94;4977071;28;20047;-83
2020/12/24 05:14:40;;;;;;;9.75;1.65;;;10.20;89.70;;;10.25;76.73;99507.19;4965666;28;20079;-83
2020/12/24 05:17:08;;;;;;;16.48;2.20;;;10.20;89.70;;;10.23;76.22;99503.84;4959179;28;20051;-83
2020/12/24 05:19:47;;;;;;;11.82;2.40;;;10.20;89.60;;;10.24;75.98;99500.88;4976564;28;20043;-83
2020/12/24 05:22:17;;;;;;;14.25;1.80;;;10.20;89.60;;;10.23;76.20;99506.56;4971788;28;20055;-83
2020/12/24 05:24:44;;;;;;;10.05;1.73;;;10.20;89.50;;;10.20;76.63;99509.69;4972683;28;20120;-83
2020/12/24 05:27:13;;;;;;;8.27;1.85;;;10.20;89.60;;;10.21;76.52;99500.50;4976460;28;20081;-83
2020/12/24 05:29:43;;;;;;;8.45;2.10;;;10.20;89.50;;;10.21;76.71;99508.66;4975632;28;20050;-83
2020/12/24 05:32:11;;;;;;;10.13;1.60;;;10.20;89.70;;;10.18;76.54;99510.75;4976714;28;20133;-83
2020/12/24 05:34:38;;;;;;;7.55;1.52;;;10.20;89.60;;;10.19;76.84;99503.41;4976474;28;20074;-83
2020/12/24 05:37:13;;;;;;;11.80;1.83;;;10.20;89.80;;;10.21;76.72;99503.22;4976861;28;20070;-83
2020/12/24 05:39:41;;;;;;;7.55;1.40;;;10.20;90.00;;;10.18;76.83;99499.00;4976535;28;20071;-83
2020/12/24 05:42:09;;;;;;;9.93;1.80;;;10.20;90.10;;;10.20;77.14;99506.97;4976148;28;20117;-83
2020/12/24 05:44:36;;;;;;;10.13;2.03;;;10.20;90.10;;;10.20;76.57;99502.34;4976697;28;20102;-84
2020/12/24 05:47:05;;;;;;;9.35;1.67;;;10.20;89.90;;;10.16;77.03;99499.19;4976999;28;20078;-83
2020/12/24 05:49:34;;;;;;;12.60;1.98;;;10.20;90.10;;;10.19;77.02;99503.41;4976235;28;20042;-85
2020/12/24 05:52:05;;;;;;;8.55;2.00;;;10.20;90.20;;;10.21;76.93;99500.50;4975828;28;20129;-85
2020/12/24 05:54:33;;;;;;;12.50;3.25;;;10.20;89.90;;;10.22;76.86;99496.72;4976286;28;20530;-85
2020/12/24 05:57:02;;;;;;;8.50;1.60;;;10.20;89.90;;;10.23;77.09;99503.84;4975809;28;20074;-85
2020/12/24 05:59:31;;;;;;;13.73;1.92;;;10.10;90.00;;;10.21;76.79;99511.38;4958467;28;20050;-86
2020/12/24 06:02:17;;;;;;;10.00;2.13;;;10.10;90.50;;;10.14;76.96;99517.59;4976166;28;20047;-86
2020/12/24 06:04:49;;;;;;;9.82;1.70;;;10.10;90.40;;;10.12;77.07;99508.81;4975883;28;20046;-85
2020/12/24 06:07:32;;;;;;;9.68;1.80;;;10.10;90.50;;;10.15;77.14;99510.31;4976050;28;20097;-86
2020/12/24 06:10:08;;;;;;;12.45;2.22;;;10.10;90.50;;;10.12;77.35;99513.44;4976454;28;20043;-85
2020/12/24 06:12:50;;;;;;;13.45;2.40;;;10.10;90.70;;;10.13;77.55;99520.56;4975967;28;20066;-85
2020/12/24 06:15:18;;;;;;;13.55;2.22;;;10.10;90.80;;;10.11;77.70;99512.59;4974693;28;20402;-86
2020/12/24 06:17:49;;;;;;;10.60;2.08;;;10.10;90.70;;;10.02;77.55;99522.00;4975149;28;20054;-85
2020/12/24 06:20:19;;;;;;;11.68;1.80;;;10.10;90.80;;;10.01;78.38;99528.44;4977263;28;20054;-86
2020/12/24 06:22:46;;;;;;;10.18;1.67;;;10.10;91.20;;;10.07;78.59;99524.06;4974446;28;20044;-86
2020/12/24 06:25:13;;;;;;;12.68;2.22;;;10.10;91.70;;;10.13;78.75;99526.81;4975473;28;20074;-85
2020/12/24 06:27:44;;;;;;;10.52;1.95;;;10.10;92.20;;;10.04;78.95;99528.06;4974292;28;20125;-85
2020/12/24 06:30:15;;;;;;;10.73;2.00;;;10.10;92.10;;;10.04;79.36;99535.38;4974900;28;20138;-85
2020/12/24 06:32:49;;;;;;;9.02;1.73;;;10.10;92.60;;;9.98;79.60;99521.56;4975067;28;20035;-85
2020/12/24 06:35:35;;;;;;;9.68;1.63;;;10.10;92.70;;;9.98;79.88;99518.84;4974569;28;20906;-85
2020/12/24 06:38:02;;;;;;;9.52;1.40;;;10.10;92.70;;;10.01;79.73;99514.88;4974568;28;20054;-85
2020/12/24 06:40:31;;;;;;;10.88;1.77;;;10.10;92.80;;;10.07;79.46;99515.91;4974246;28;20566;-85
2020/12/24 06:42:58;;;;;;;8.70;1.75;;;10.10;92.70;;;9.97;79.31;99514.44;4973880;28;20039;-85
2020/12/24 06:45:36;;;;;;;9.95;2.03;;;10.00;92.60;;;10.00;79.46;99521.34;4974001;28;20058;-85
2020/12/24 06:48:24;;;;;;;8.18;1.60;;;10.00;92.70;;;10.01;79.43;99530.34;4974754;28;20101;-85
2020/12/24 06:50:52;;;;;;;7.88;1.90;;;10.00;93.00;;;9.94;79.72;99533.06;4974872;28;20078;-85
2020/12/24 06:53:28;;;;;;;10.23;2.13;;;10.00;92.90;;;9.96;79.36;99539.13;4976044;28;20065;-84
2020/12/24 06:56:32;;;;;;;12.68;2.47;;;10.00;93.10;;;9.91;79.63;99538.88;4975954;28;20062;-84
2020/12/24 06:59:03;;;;;;;10.15;1.80;;;10.00;93.10;;;9.95;79.83;99548.31;4972879;28;20089;-85
2020/12/24 07:01:31;;;;;;;12.23;1.80;;;9.90;93.20;;;9.97;79.58;99548.94;4974743;28;20097;-86
2020/12/24 07:04:00;;;;;;;10.43;2.20;;;9.90;93.30;;;9.93;79.98;99559.38;4973593;28;20047;-85
2020/12/24 07:06:52;;;;;;;10.48;2.15;;;9.90;93.30;;;9.97;79.76;99557.09;4974614;28;20447;-86
2020/12/24 07:09:44;;;;;;;8.98;1.80;;;9.90;93.60;;;9.92;80.01;99565.03;4973824;28;20053;-85
2020/12/24 07:12:36;;;;;;;15.02;2.40;;;9.90;93.70;;;9.91;80.08;99563.34;4975549;28;20114;-85
2020/12/24 07:15:23;;;;;;;11.10;1.80;;;9.90;93.80;;;9.87;80.07;99565.63;4976144;28;20074;-84
2020/12/24 07:17:54;;;;;;;12.73;1.77;;;9.90;93.80;;;9.91;80.16;99566.06;4974522;28;20046;-85
2020/12/24 07:20:25;;;;;;;14.10;2.25;;;9.90;93.90;;;9.92;80.20;99574.03;4975064;28;20078;-83
2020/12/24 07:22:55;;;;;;;10.60;2.22;;;9.90;93.90;;;9.88;80.03;99574.63;4967781;28;20134;-85
2020/12/24 07:25:24;;;;;;;9.95;1.88;;;9.90;94.00;;;9.84;80.38;99576.06;4955764;29;20118;-84
2020/12/24 07:27:52;;;;;;;9.25;2.00;;;9.90;94.00;;;9.86;80.56;99582.13;4957086;29;20107;-84
2020/12/24 07:30:22;;;;;;;11.07;2.10;;;9.90;94.10;;;9.81;80.59;99588.19;4957268;29;20051;-84
2020/12/24 07:32:54;;;;;;;15.65;2.28;;;9.90;94.00;;;9.78;80.84;99597.56;4955740;29;20043;-84
2020/12/24 07:35:22;;;;;;;12.18;2.15;;;9.90;94.20;;;9.87;80.92;99589.25;4956433;29;20117;-84
2020/12/24 07:37:49;;;;;;;12.07;1.90;;;9.90;94.20;;;9.82;81.02;99595.28;4956023;29;20078;-84
2020/12/24 07:40:17;;;;;;;12.05;2.55;;;9.90;94.30;;;9.86;80.81;99596.59;4956223;29;20043;-83
2020/12/24 07:42:44;;;;;;;13.52;2.20;;;9.90;94.30;;;9.86;80.76;99601.16;4956764;29;20057;-84
2020/12/24 07:45:13;;;;;;;20.40;3.45;;;9.90;94.20;;;9.89;80.58;99641.53;4954354;29;20078;-84
2020/12/24 07:47:46;;;;;;;7.45;2.80;;;9.90;94.20;;;9.90;79.62;99646.78;4954162;29;20102;-84
2020/12/24 07:50:13;;;;;;;6.20;2.38;;;9.90;92.70;;;9.87;78.56;99658.03;4955253;29;20128;-84
2020/12/24 07:52:45;;;;;;;3.60;2.13;;;9.80;92.00;;;9.85;77.50;99657.41;4964758;28;20121;-83
2020/12/24 07:55:12;;;;;;;3.40;2.00;;;9.70;90.70;;;9.81;76.92;99666.16;4979750;28;20053;-83
2020/12/24 07:57:39;;;;;;;3.60;2.13;;;9.60;90.50;;;9.75;75.75;99679.50;4974134;28;20154;-85
2020/12/24 08:00:06;;;;;;;3.92;2.38;;;9.40;89.60;;;9.73;75.17;99695.16;4973255;28;20074;-85
2020/12/24 08:02:33;;;;;;;3.55;2.40;;;9.20;89.50;;;9.68;74.64;99697.63;4962981;28;20117;-85
2020/12/24 08:05:00;;;;;;;3.38;2.22;;;9.10;89.70;;;9.64;74.85;99700.97;4976728;28;20096;-84
2020/12/24 08:07:27;;;;;;;3.30;2.00;;;9.10;89.90;;;9.61;74.25;99704.91;4978205;28;20050;-85
2020/12/24 08:10:08;;;;;;;3.70;2.30;;;9.00;89.70;;;9.56;73.91;99712.81;4978770;28;20057;-85
2020/12/24 08:12:35;;;;;;;5.25;2.28;;;8.90;89.90;;;9.49;73.44;99720.06;4982590;28;20053;-85
2020/12/24 08:15:14;;;;;;;3.85;1.80;;;8.90;90.10;;;9.46;73.38;99728.59;4981797;28;20050;-85
2020/12/24 08:17:54;;;;;;;3.13;1.80;;;8.70;89.30;;;9.38;73.34;99741.28;4982118;28;20070;-85
2020/12/24 08:20:29;;;;;;;3.03;1.80;;;8.60;89.50;;;9.27;72.73;99752.69;4983046;28;20050;-85
2020/12/24 08:23:07;;;;;;;2.97;1.70;;;8.50;89.50;;;9.25;72.62;99749.31;4982943;28;20047;-85
2020/12/24 08:25:35;;;;;;;2.97;1.80;;;8.40;89.40;;;9.20;73.08;99758.06;4983799;28;20047;-84
2020/12/24 08:28:04;;;;;;;3.40;1.70;;;8.30;90.10;;;9.16;72.84;99758.66;4985095;28;20062;-86
2020/12/24 08:30:31;;;;;;;5.05;2.00;;;8.30;90.00;;;9.12;73.54;99763.63;4981560;28;20039;-84
2020/12/24 08:32:59;;;;;;;3.67;1.83;;;8.30;90.50;;;9.10;73.23;99767.53;4982239;28;20058;-85
2020/12/24 08:35:30;;;;;;;3.72;1.65;;;8.30;90.20;;;9.06;73.03;99782.53;4982632;28;20050;-85
2020/12/24 08:38:13;;;;;;;3.30;1.52;;;8.20;90.30;;;9.02;72.96;99783.97;4981987;28;20077;-85
2020/12/24 08:40:42;;;;;;;2.78;1.25;;;8.20;89.80;;;9.03;73.14;99794.63;4979717;28;20062;-85
2020/12/24 08:43:11;;;;;;;2.70;1.40;;;8.10;90.30;;;8.92;72.68;99801.41;4986283;28;20057;-85
2020/12/24 08:45:46;;;;;;;2.97;1.30;;;8.10;89.90;;;8.94;72.62;99804.75;4984790;28;20046;-83
2020/12/24 08:48:31;;;;;;;4.05;1.10;;;8.00;89.90;;;8.92;72.54;99800.56;4984138;28;20043;-85
2020/12/24 08:50:58;;;;;;;2.75;1.10;;;8.00;90.80;;;8.91;73.11;99809.72;4996337;28;20038;-86
2020/12/24 08:53:28;;;;;;;2.15;1.05;;;8.10;90.50;;;8.88;73.14;99808.25;5002522;28;20042;-85
2020/12/24 08:55:56;;;;;;;2.20;1.13;;;8.10;90.50;;;8.86;72.62;99813.03;4981208;28;20054;-85
2020/12/24 08:58:22;;;;;;;2.53;1.10;;;8.00;89.20;;;8.89;72.67;99817.22;4994988;28;20046;-85
2020/12/24 09:00:49;;;;;;;2.00;1.00;;;7.90;90.30;;;8.89;72.63;99833.50;4989656;28;20065;-85
2020/12/24 09:03:24;;;;;;;2.42;1.10;;;7.90;90.60;;;8.87;72.81;99841.84;5001780;28;20073;-85
2020/12/24 09:05:51;;;;;;;3.25;1.33;;;7.90;90.80;;;8.85;72.59;99843.88;4999739;28;20074;-84
2020/12/24 09:08:25;;;;;;;2.50;1.23;;;7.90;90.00;;;8.81;71.95;99848.00;4996350;28;20038;-85
2020/12/24 09:10:52;;;;;;;2.15;1.00;;;7.90;90.10;;;8.74;72.16;99847.13;4969516;28;20503;-85
2020/12/24 09:13:20;;;;;;;2.75;1.20;;;7.90;89.30;;;8.69;72.56;99849.53;4979745;28;20043;-85
2020/12/24 09:15:47;;;;;;;2.63;1.20;;;7.90;90.10;;;8.72;72.64;99857.28;4977188;28;20042;-83
2020/12/24 09:18:17;;;;;;;2.60;1.30;;;7.90;89.80;;;8.67;71.85;99871.44;4977480;28;20115;-83
2020/12/24 09:20:44;;;;;;;2.80;1.30;;;7.80;89.70;;;8.68;72.04;99867.69;4994355;28;20094;-84
2020/12/24 09:23:12;;;;;;;3.58;1.08;;;7.80;90.30;;;8.67;72.15;99870.59;4997441;28;20084;-84
2020/12/24 09:25:41;;;;;;;3.10;1.40;;;7.80;90.10;;;8.66;72.92;99871.59;4998334;28;20065;-82
2020/12/24 09:28:23;;;;;;;2.88;1.30;;;7.80;90.90;;;8.63;72.63;99878.25;4997494;28;20129;-82
2020/12/24 09:30:52;;;;;;;3.05;1.40;;;7.80;90.40;;;8.61;73.13;99883.88;4978021;28;20078;-82
2020/12/24 09:33:19;;;;;;;3.55;1.52;;;7.80;91.00;;;8.61;72.95;99888.47;4979514;28;20058;-82
2020/12/24 09:35:46;;;;;;;3.60;1.63;;;7.80;90.90;;;8.62;72.80;99906.41;4980592;28;20802;-82
2020/12/24 09:38:13;;;;;;;3.45;1.42;;;7.80;90.50;;;8.61;72.90;99908.28;4981770;28;20058;-83
2020/12/24 09:40:40;;;;;;;3.20;1.40;;;7.80;90.30;;;8.58;73.22;99914.06;4981120;28;20042;-83
2020/12/24 09:43:07;;;;;;;3.83;1.80;;;7.70;91.10;;;8.55;73.74;99913.63;4980373;28;20054;-83
2020/12/24 09:45:35;;;;;;;4.57;1.88;;;7.80;91.10;;;8.56;73.76;99920.72;4979969;28;20058;-83
2020/12/24 09:48:03;;;;;;;3.28;1.70;;;7.80;91.20;;;8.55;73.40;99929.91;4980685;28;20047;-83
2020/12/24 09:50:30;;;;;;;4.90;2.40;;;7.80;90.90;;;8.51;73.34;99939.41;4979918;28;20047;-83
2020/12/24 09:52:56;;;;;;;4.00;1.92;;;7.80;90.80;;;8.51;73.75;99940.28;4962568;28;20776;-83
2020/12/24 09:55:23;;;;;;;3.47;1.33;;;7.70;91.10;;;8.48;73.52;99950.63;4979406;28;20077;-83
2020/12/24 09:57:50;;;;;;;3.15;1.50;;;7.70;91.30;;;8.47;73.56;99955.19;4980273;28;20059;-83
2020/12/24 10:00:17;;;;;;;2.70;1.30;;;7.80;91.20;;;8.53;72.67;99964.47;4981291;28;20063;-85
2020/12/24 10:02:44;;;;;;;2.60;1.27;;;7.80;90.60;;;8.52;73.64;99968.22;4977537;28;20070;-83
2020/12/24 10:05:11;;;;;;;3.20;1.20;;;7.80;90.90;;;8.52;74.10;99969.06;4948133;28;20562;-85
2020/12/24 10:07:38;;;;;;;2.90;1.60;;;7.80;91.30;;;8.47;73.96;99971.47;4973796;28;20522;-85
2020/12/24 10:10:05;;;;;;;2.80;1.60;;;7.80;91.50;;;8.54;74.72;99971.59;4980421;28;20074;-84
2020/12/24 10:12:32;;;;;;;3.05;1.70;;;7.80;91.70;;;8.51;74.68;99978.25;4982161;28;20067;-85
2020/12/24 10:14:59;;;;;;;3.83;2.03;;;7.80;91.80;;;8.53;74.77;99976.19;4983239;28;20077;-84
2020/12/24 10:17:26;;;;;;;3.42;2.28;;;7.80;91.80;;;8.55;74.73;99982.25;4980573;28;20047;-84
2020/12/24 10:19:55;;;;;;;3.80;2.10;;;7.80;91.90;;;8.55;74.51;99979.53;4959053;28;20046;-87
2020/12/24 10:22:24;;;;;;;3.95;2.00;;;7.90;91.90;;;8.53;74.75;99991.59;4965360;28;20043;-84
2020/12/24 10:24:51;;;;;;;5.28;2.00;;;7.90;91.80;;;8.54;73.86;99985.97;4972840;28;20066;-85
2020/12/24 10:27:18;;;;;;;4.22;2.00;;;7.90;90.30;;;8.56;73.47;99993.94;4967529;28;20081;-87